Terminal Aerodrome Forecast
Issued by NWS Missoula, MT

Home | Current Version | Previous Version | Text Only | Print | Product List | Glossary On
Versions: 1 2 3 4 5 6 7 8 9 10 11 12 13 14
604
FTUS45 KMSO 222320
TAFGPI
TAF
KGPI 222320Z 2300/2324 17009KT P6SM SCT090
     FM230300 01011KT P6SM SCT090
     FM230800 06017KT P6SM BKN080
     FM231500 09010KT P6SM BKN100=

USA.gov is the U.S. government's official web portal to all federal, state and local government web resources and services.